Gatzke, MN

9:22 PM CST on January 25, 2015 (GMT -0600)
Erickson Family Farms | Change Station
CLOSE
Current Station
Personal Weather Station
Location: Middle River, MN
Elevation: 1142 ft
Nearby Weather Stations

Elev 1142 ft 48.34 °N, 96.09 °W | Updated 3 seconds ago

Overcast
Overcast
23.0 °F
Feels Like 11 °F
N
12.3
Wind Variable Wind from SSW
Gusts 15.0 mph

Today
High -- | Low -- °F
--% Chance of Precip.
Yesterday
High -- | Low -- °F
Precip. -- in
8:00 AM 5:10 PM
Waxing Crescent, 38% visible
Pressure 29.82 in
Visibility 10.0 miles
Clouds Overcast 1200 ft
Windchill 11 °F
Dew Point 13 °F
Humidity 66%
Rainfall 0.00 in
Snow Depth Not available.
UV 0.0 out of 12
Pollen .10 out of 12
Air Quality Not available.
Flu Activity Not available.
METAR KTVF 260315Z AUTO 19012KT 10SM OVC012 M05/M08 A2982 RMK AO1

More Conditions Fewer Conditions

Pressure 29.82 in
Visibility 10.0 miles
Clouds Overcast 1200 ft
Windchill 11 °F
Dew Point 13 °F
Humidity 66%
Rainfall 0.00 in
Snow Depth Not available.
UV 0.0 out of 12
Pollen .10 out of 12
Air Quality Not available.
Flu Activity Not available.
METAR KTVF 260315Z AUTO 19012KT 10SM OVC012 M05/M08 A2982 RMK AO1

More Conditions Fewer Conditions

10-Day Weather Forecast

Almanac

Astronomy

Jan. 25, 2015 Rise Set
Actual Time
Civil Twilight
Nautical Twilight
Astronomical Twilight
Moon
Length of Visible Light
Length of Day
Tomorrow will be .
, % of the Moon is Illuminated

Today's Extremes

State Highs State Lows

Community

WunderPhotos

Upload Photos

1,790,093 photos uploaded!

WunderBlogs® & News

Nearby

Air Quality

  Air Quality AQ Index Pollutant
Not available.

Snow Depth

Station Depth Elevation

Earthquake Activity

City Distance Mag. Time & Date
Minimum magnitude displayed is 2.5.

Coastal Water Temperatures

Place Temperature

Nearby Weather Stations